Time;durP1;ratioP1;P1;durP2;ratioP2;P2;SDS_P1;SDS_P2;PMS_P1;PMS_P2;Temp;Humidity;BMP_temperature;BMP_pressure;BME280_temperature;BME280_humidity;BME280_pressure;Samples;Min_cycle;Max_cycle;Signal;HPM_P1;HPM_P2
2022/09/11 00:00:48;;;;;;;10.25;1.52;;;;;;;;;;5072310;28;20035;-77
2022/09/11 00:03:13;;;;;;;4.38;1.67;;;;;;;;;;5071493;28;20027;-77
2022/09/11 00:05:40;;;;;;;4.70;2.05;;;;;;;;;;5090467;28;20024;-77
2022/09/11 00:08:18;;;;;;;1.98;1.17;;;;;;;;;;5072285;28;20038;-76
2022/09/11 00:10:45;;;;;;;2.40;1.30;;;;;;;;;;5090513;28;20020;-76
2022/09/11 00:13:21;;;;;;;2.70;1.40;;;;;;;;;;5072166;28;20031;-77
2022/09/11 00:15:51;;;;;;;3.47;2.13;;;;;;;;;;5071997;28;20082;-77
2022/09/11 00:18:22;;;;;;;2.20;1.20;;;;;;;;;;5090657;28;20109;-77
2022/09/11 00:20:56;;;;;;;1.63;1.48;;;;;;;;;;5072092;28;20031;-78
2022/09/11 00:23:24;;;;;;;3.50;1.55;;;;;;;;;;5055455;28;20150;-77
2022/09/11 00:25:51;;;;;;;2.92;1.50;;;;;;;;;;5052475;28;20040;-77
2022/09/11 00:28:24;;;;;;;2.75;1.40;;;;;;;;;;5070271;28;20088;-77
2022/09/11 00:30:58;;;;;;;1.63;1.52;;;;;;;;;;5069779;28;20055;-77
2022/09/11 00:33:23;;;;;;;5.47;1.88;;;;;;;;;;5051896;28;20115;-77
2022/09/11 00:35:57;;;;;;;1.42;1.33;;;;;;;;;;5051892;28;20174;-76
2022/09/11 00:38:22;;;;;;;6.15;1.50;;;;;;;;;;5070277;28;20536;-77
2022/09/11 00:40:48;;;;;;;2.90;1.10;;;;;;;;;;5051741;28;20114;-76
2022/09/11 00:43:15;;;;;;;5.80;1.48;;;;;;;;;;5051960;28;20107;-76
2022/09/11 00:45:43;;;;;;;4.20;1.67;;;;;;;;;;5051845;28;20021;-77
2022/09/11 00:48:10;;;;;;;3.63;1.42;;;;;;;;;;5051884;28;20033;-76
2022/09/11 00:50:36;;;;;;;2.08;1.40;;;;;;;;;;5051533;28;20028;-76
2022/09/11 00:53:06;;;;;;;3.30;1.35;;;;;;;;;;5051555;28;20116;-77
2022/09/11 00:55:34;;;;;;;3.23;1.60;;;;;;;;;;5051547;28;20814;-76
2022/09/11 00:58:18;;;;;;;2.47;1.30;;;;;;;;;;5069914;28;20029;-76
2022/09/11 01:00:44;;;;;;;2.58;1.13;;;;;;;;;;5069667;28;20023;-76
2022/09/11 01:03:11;;;;;;;4.43;1.60;;;;;;;;;;5051607;28;20029;-76
2022/09/11 01:05:39;;;;;;;3.65;1.40;;;;;;;;;;5051302;28;20035;-76
2022/09/11 01:08:05;;;;;;;1.70;1.05;;;;;;;;;;5051647;28;20098;-76
2022/09/11 01:11:12;;;;;;;1.30;1.20;;;;;;;;;;5051217;28;20410;-76
2022/09/11 01:13:55;;;;;;;1.75;1.50;;;;;;;;;;5069203;28;20107;-76
2022/09/11 01:16:44;;;;;;;2.55;1.52;;;;;;;;;;5073354;28;20016;-76
2022/09/11 01:19:47;;;;;;;2.08;1.48;;;;;;;;;;5055086;28;20051;-76
2022/09/11 01:22:25;;;;;;;2.63;1.30;;;;;;;;;;5055268;28;20029;-76
2022/09/11 01:25:19;;;;;;;6.13;1.48;;;;;;;;;;5066724;28;20132;-77
2022/09/11 01:27:51;;;;;;;3.05;1.60;;;;;;;;;;5075350;28;20027;-77
2022/09/11 01:30:39;;;;;;;1.95;1.55;;;;;;;;;;5075186;28;20059;-77
2022/09/11 01:33:27;;;;;;;1.50;1.20;;;;;;;;;;5093613;28;20031;-77
2022/09/11 01:36:05;;;;;;;2.92;1.70;;;;;;;;;;5074841;28;20028;-76
2022/09/11 01:38:38;;;;;;;2.58;1.58;;;;;;;;;;5092978;28;20031;-77
2022/09/11 01:41:19;;;;;;;3.00;1.85;;;;;;;;;;5074924;28;20032;-76
2022/09/11 01:43:50;;;;;;;1.63;1.52;;;;;;;;;;5093100;28;20065;-75
2022/09/11 01:46:21;;;;;;;2.97;1.75;;;;;;;;;;5074840;28;20038;-76
2022/09/11 01:49:07;;;;;;;4.57;1.60;;;;;;;;;;5074625;28;20111;-77
2022/09/11 01:51:35;;;;;;;2.75;1.70;;;;;;;;;;5074643;28;20265;-77
2022/09/11 01:54:03;;;;;;;2.25;1.67;;;;;;;;;;5074534;28;20055;-77
2022/09/11 01:56:39;;;;;;;2.63;2.13;;;;;;;;;;5074733;28;20043;-77
2022/09/11 01:59:09;;;;;;;1.55;1.42;;;;;;;;;;5092933;28;20020;-77
2022/09/11 02:01:37;;;;;;;4.05;1.92;;;;;;;;;;5074342;28;20020;-78
2022/09/11 02:04:27;;;;;;;3.45;1.38;;;;;;;;;;5074421;28;20495;-78
2022/09/11 02:07:05;;;;;;;3.08;1.58;;;;;;;;;;5074498;28;20032;-77
2022/09/11 02:09:36;;;;;;;1.52;1.45;;;;;;;;;;5074518;28;20500;-77
2022/09/11 02:12:08;;;;;;;3.17;2.03;;;;;;;;;;5092862;28;20059;-76
2022/09/11 02:14:37;;;;;;;;;;;;;;;;;;5074927;28;20043;-76
2022/09/11 02:17:23;;;;;;;2.17;1.60;;;;;;;;;;5074468;28;19911;-75
2022/09/11 02:19:49;;;;;;;1.67;1.30;;;;;;;;;;5074231;28;20026;-77
2022/09/11 02:22:14;;;;;;;1.60;1.40;;;;;;;;;;5075067;28;20032;-76
2022/09/11 02:24:40;;;;;;;3.78;1.52;;;;;;;;;;5071628;28;20067;-76
2022/09/11 02:27:09;;;;;;;3.55;1.80;;;;;;;;;;5071563;28;20028;-76
2022/09/11 02:29:35;;;;;;;2.10;1.65;;;;;;;;;;5053589;28;20052;-76
2022/09/11 02:32:02;;;;;;;1.85;1.30;;;;;;;;;;5054272;28;20032;-76
2022/09/11 02:34:33;;;;;;;46.63;5.32;;;;;;;;;;5053620;28;20075;-75
2022/09/11 02:37:04;;;;;;;2.88;1.50;;;;;;;;;;5054008;28;20020;-76
2022/09/11 02:39:36;;;;;;;1.27;1.15;;;;;;;;;;5053799;28;20081;-75
2022/09/11 02:42:37;;;;;;;2.92;1.30;;;;;;;;;;5054390;28;20027;-77
2022/09/11 02:45:51;;;;;;;5.05;1.73;;;;;;;;;;5059901;28;20028;-75
2022/09/11 02:48:50;;;;;;;1.98;1.58;;;;;;;;;;5055057;28;20024;-75
2022/09/11 02:51:37;;;;;;;5.70;3.97;;;;;;;;;;5056672;28;20044;-75
2022/09/11 02:54:36;;;;;;;3.00;1.60;;;;;;;;;;5076050;28;20090;-76
2022/09/11 02:57:22;;;;;;;2.58;1.73;;;;;;;;;;5055897;28;20032;-75
2022/09/11 02:59:54;;;;;;;2.35;1.88;;;;;;;;;;5072526;28;20024;-76
2022/09/11 03:02:22;;;;;;;1.60;1.42;;;;;;;;;;5053725;28;20471;-75
2022/09/11 03:04:47;;;;;;;2.50;2.03;;;;;;;;;;5053131;28;20074;-76
2022/09/11 03:07:13;;;;;;;3.83;1.90;;;;;;;;;;5053687;28;20056;-76
2022/09/11 03:09:38;;;;;;;3.92;2.10;;;;;;;;;;5053236;28;20051;-76
2022/09/11 03:12:04;;;;;;;4.47;1.95;;;;;;;;;;5053556;28;20025;-76
2022/09/11 03:14:30;;;;;;;4.75;1.95;;;;;;;;;;5053349;28;20447;-76
2022/09/11 03:16:55;;;;;;;3.42;1.85;;;;;;;;;;5071123;28;20047;-76
2022/09/11 03:19:21;;;;;;;5.15;1.95;;;;;;;;;;5071620;28;20090;-76
2022/09/11 03:21:47;;;;;;;4.15;1.90;;;;;;;;;;5052993;28;20446;-76
2022/09/11 03:24:15;;;;;;;2.58;1.80;;;;;;;;;;5055969;28;20025;-76
2022/09/11 03:26:41;;;;;;;1.90;1.80;;;;;;;;;;5052764;28;20035;-76
2022/09/11 03:29:07;;;;;;;4.40;2.17;;;;;;;;;;5053060;28;20029;-77
2022/09/11 03:31:33;;;;;;;2.40;1.77;;;;;;;;;;5052667;28;20557;-75
2022/09/11 03:33:58;;;;;;;2.78;1.90;;;;;;;;;;5070532;28;20020;-75
2022/09/11 03:36:24;;;;;;;3.03;2.00;;;;;;;;;;5071154;28;20392;-75
2022/09/11 03:38:51;;;;;;;1.98;1.48;;;;;;;;;;5052311;28;20029;-76
2022/09/11 03:41:17;;;;;;;2.47;1.77;;;;;;;;;;5052551;28;20059;-76
2022/09/11 03:43:42;;;;;;;2.33;1.75;;;;;;;;;;5070586;28;20101;-77
2022/09/11 03:46:08;;;;;;;4.72;2.00;;;;;;;;;;5052489;28;20031;-78
2022/09/11 03:48:34;;;;;;;3.78;1.58;;;;;;;;;;5070892;28;20668;-79
2022/09/11 03:51:00;;;;;;;3.63;2.08;;;;;;;;;;5070488;28;20024;-79
2022/09/11 03:53:25;;;;;;;2.05;1.85;;;;;;;;;;5052320;28;20457;-79
2022/09/11 03:55:51;;;;;;;2.28;1.90;;;;;;;;;;5052227;28;20409;-79
2022/09/11 03:58:20;;;;;;;3.60;2.75;;;;;;;;;;5052275;28;20056;-79
2022/09/11 04:00:46;;;;;;;4.43;2.05;;;;;;;;;;5070461;28;20070;-79
2022/09/11 04:03:14;;;;;;;2.47;2.03;;;;;;;;;;5052397;28;20048;-79
2022/09/11 04:05:42;;;;;;;1.85;1.70;;;;;;;;;;5070408;28;20028;-78
2022/09/11 04:08:11;;;;;;;3.30;1.63;;;;;;;;;;5052701;28;20629;-80
2022/09/11 04:10:37;;;;;;;3.30;1.80;;;;;;;;;;5070338;28;20454;-79
2022/09/11 04:13:03;;;;;;;3.03;2.22;;;;;;;;;;5051993;28;20021;-78
2022/09/11 04:15:29;;;;;;;4.82;2.47;;;;;;;;;;5070320;28;20677;-77
2022/09/11 04:17:55;;;;;;;7.40;1.80;;;;;;;;;;5070474;28;20119;-80
2022/09/11 04:20:21;;;;;;;2.38;2.00;;;;;;;;;;5070335;28;20048;-79
2022/09/11 04:22:46;;;;;;;2.60;2.08;;;;;;;;;;5052540;28;20446;-80
2022/09/11 04:25:13;;;;;;;3.55;1.90;;;;;;;;;;5052449;28;20119;-79
2022/09/11 04:27:38;;;;;;;2.58;1.80;;;;;;;;;;5074208;28;20377;-77
2022/09/11 04:30:05;;;;;;;2.90;1.88;;;;;;;;;;5072228;28;20048;-78
2022/09/11 04:32:30;;;;;;;2.83;2.10;;;;;;;;;;5070188;28;20036;-77
2022/09/11 04:34:56;;;;;;;2.95;2.50;;;;;;;;;;5052134;28;20025;-77
2022/09/11 04:37:21;;;;;;;3.58;1.77;;;;;;;;;;5052138;28;20635;-77
2022/09/11 04:39:47;;;;;;;4.47;3.22;;;;;;;;;;5070228;28;20081;-77
2022/09/11 04:42:13;;;;;;;2.47;2.22;;;;;;;;;;5052379;28;20365;-77
2022/09/11 04:44:38;;;;;;;6.05;2.17;;;;;;;;;;5052220;28;20020;-77
2022/09/11 04:47:04;;;;;;;7.53;3.92;;;;;;;;;;5051689;28;20035;-76
2022/09/11 04:49:30;;;;;;;2.90;2.13;;;;;;;;;;5071193;28;20130;-76
2022/09/11 04:51:56;;;;;;;4.45;2.28;;;;;;;;;;5073810;28;20476;-77
2022/09/11 04:54:22;;;;;;;2.38;1.73;;;;;;;;;;5055722;28;20020;-76
2022/09/11 04:56:48;;;;;;;2.30;2.10;;;;;;;;;;5055701;28;20803;-76
2022/09/11 04:59:19;;;;;;;3.00;1.80;;;;;;;;;;5055662;28;20024;-76
2022/09/11 05:01:45;;;;;;;2.60;2.13;;;;;;;;;;5073421;28;20099;-76
2022/09/11 05:04:12;;;;;;;3.28;1.95;;;;;;;;;;5038826;28;20036;-76
2022/09/11 05:06:38;;;;;;;3.83;1.85;;;;;;;;;;5055510;28;20094;-77
2022/09/11 05:09:07;;;;;;;3.95;1.98;;;;;;;;;;5055460;28;20460;-77
2022/09/11 05:11:33;;;;;;;2.90;1.90;;;;;;;;;;5073500;28;20111;-77
2022/09/11 05:13:58;;;;;;;2.70;2.45;;;;;;;;;;5073108;28;20025;-77
2022/09/11 05:16:28;;;;;;;2.20;2.03;;;;;;;;;;5055649;28;20115;-75
2022/09/11 05:18:55;;;;;;;1.85;1.75;;;;;;;;;;5055029;28;20024;-76
2022/09/11 05:21:23;;;;;;;2.80;1.77;;;;;;;;;;5073177;28;20028;-76
2022/09/11 05:23:50;;;;;;;3.65;1.77;;;;;;;;;;5057845;28;20073;-76
2022/09/11 05:26:18;;;;;;;2.22;2.03;;;;;;;;;;5075362;28;20026;-77
2022/09/11 05:28:44;;;;;;;3.15;1.77;;;;;;;;;;5093129;28;20486;-77
2022/09/11 05:31:15;;;;;;;2.28;1.58;;;;;;;;;;5074869;28;20052;-76
2022/09/11 05:33:42;;;;;;;3.25;1.80;;;;;;;;;;5075040;28;20032;-78
2022/09/11 05:36:10;;;;;;;2.53;1.73;;;;;;;;;;5074724;28;20028;-77
2022/09/11 05:38:35;;;;;;;2.28;1.80;;;;;;;;;;5093267;28;20116;-77
2022/09/11 05:41:04;;;;;;;2.58;1.90;;;;;;;;;;5074885;28;20666;-77
2022/09/11 05:43:31;;;;;;;3.60;2.30;;;;;;;;;;5074942;28;20032;-77
2022/09/11 05:45:58;;;;;;;4.95;1.90;;;;;;;;;;5092965;28;20031;-77
2022/09/11 05:48:26;;;;;;;1.73;1.63;;;;;;;;;;5092949;28;20372;-77
2022/09/11 05:50:58;;;;;;;5.05;2.90;;;;;;;;;;5092920;28;20028;-76
2022/09/11 05:53:24;;;;;;;4.40;1.90;;;;;;;;;;5074679;28;20030;-76
2022/09/11 05:55:50;;;;;;;2.08;1.88;;;;;;;;;;5074607;28;20028;-76
2022/09/11 05:58:16;;;;;;;1.92;1.63;;;;;;;;;;5074745;28;20064;-75
2022/09/11 06:00:45;;;;;;;1.98;1.85;;;;;;;;;;5074830;28;20058;-77
2022/09/11 06:03:16;;;;;;;1.77;1.63;;;;;;;;;;5092933;28;20031;-77
2022/09/11 06:05:42;;;;;;;1.70;1.60;;;;;;;;;;5074667;28;20035;-76
2022/09/11 06:08:08;;;;;;;2.92;1.95;;;;;;;;;;5074602;28;20513;-76
2022/09/11 06:10:35;;;;;;;10.32;2.50;;;;;;;;;;5092753;28;20024;-76
2022/09/11 06:13:01;;;;;;;1.60;1.50;;;;;;;;;;5092382;28;20036;-76
2022/09/11 06:15:27;;;;;;;2.22;1.58;;;;;;;;;;5092955;28;20039;-76
2022/09/11 06:17:53;;;;;;;2.00;1.90;;;;;;;;;;5074899;28;20070;-77
2022/09/11 06:20:18;;;;;;;2.78;1.60;;;;;;;;;;5075154;28;20346;-76
2022/09/11 06:22:44;;;;;;;1.73;1.52;;;;;;;;;;5074103;28;20031;-77
2022/09/11 06:25:10;;;;;;;2.63;1.88;;;;;;;;;;5059877;28;20052;-76
2022/09/11 06:27:35;;;;;;;1.95;1.23;;;;;;;;;;5072102;28;20488;-77
2022/09/11 06:30:01;;;;;;;5.15;1.92;;;;;;;;;;5071920;28;20056;-77
2022/09/11 06:32:26;;;;;;;1.52;1.42;;;;;;;;;;5072189;28;20028;-77
2022/09/11 06:34:53;;;;;;;2.60;1.88;;;;;;;;;;5071858;28;20112;-76
2022/09/11 06:37:18;;;;;;;1.58;1.25;;;;;;;;;;5053966;28;20046;-76
2022/09/11 06:39:44;;;;;;;5.95;1.90;;;;;;;;;;5053700;28;20020;-77
2022/09/11 06:42:10;;;;;;;1.90;1.58;;;;;;;;;;5071867;28;20396;-77
2022/09/11 06:44:35;;;;;;;2.17;1.35;;;;;;;;;;5054130;28;20017;-77
2022/09/11 06:47:01;;;;;;;1.77;1.65;;;;;;;;;;5071978;28;20361;-77
2022/09/11 06:49:26;;;;;;;6.70;2.00;;;;;;;;;;5054151;28;20020;-77
2022/09/11 06:51:53;;;;;;;2.75;2.13;;;;;;;;;;5054175;28;20114;-78
2022/09/11 06:54:19;;;;;;;2.83;1.50;;;;;;;;;;5053721;28;20101;-77
2022/09/11 06:56:44;;;;;;;6.18;1.90;;;;;;;;;;5054381;28;20055;-78
2022/09/11 06:59:13;;;;;;;2.35;1.55;;;;;;;;;;5072703;28;20032;-76
2022/09/11 07:01:38;;;;;;;6.00;1.95;;;;;;;;;;5057344;28;20028;-77
2022/09/11 07:04:04;;;;;;;1.83;1.60;;;;;;;;;;5058965;28;20025;-76
2022/09/11 07:06:30;;;;;;;4.70;1.85;;;;;;;;;;5073067;28;20048;-77
2022/09/11 07:09:01;;;;;;;6.18;2.47;;;;;;;;;;5091654;28;20025;-76
2022/09/11 07:11:31;;;;;;;6.32;1.75;;;;;;;;;;5081918;28;20024;-77
2022/09/11 07:13:57;;;;;;;3.50;1.73;;;;;;;;;;5053166;28;20032;-77
2022/09/11 07:16:23;;;;;;;14.75;2.28;;;;;;;;;;5071277;28;20028;-77
2022/09/11 07:18:48;;;;;;;3.50;1.90;;;;;;;;;;5071195;28;20354;-77
2022/09/11 07:21:17;;;;;;;5.57;2.25;;;;;;;;;;5053152;28;20491;-77
2022/09/11 07:23:47;;;;;;;2.20;1.90;;;;;;;;;;5053170;28;20449;-77
2022/09/11 07:26:12;;;;;;;2.00;1.90;;;;;;;;;;5053023;28;20032;-77
2022/09/11 07:28:39;;;;;;;8.43;3.17;;;;;;;;;;5052692;28;20039;-77
2022/09/11 07:31:16;;;;;;;5.13;2.80;;;;;;;;;;5070644;28;20832;-77
2022/09/11 07:33:47;;;;;;;7.45;3.47;;;;;;;;;;5070676;28;20029;-77
2022/09/11 07:36:15;;;;;;;2.97;2.20;;;;;;;;;;5052613;28;20025;-77
2022/09/11 07:38:45;;;;;;;1.83;1.73;;;;;;;;;;5070551;28;20024;-78
2022/09/11 07:41:12;;;;;;;6.78;2.10;;;;;;;;;;5019757;28;20396;-77
2022/09/11 07:43:44;;;;;;;15.93;13.95;;;;;;;;;;5070685;28;20024;-77
2022/09/11 07:46:11;;;;;;;6.65;2.13;;;;;;;;;;5070529;28;20103;-77
2022/09/11 07:48:37;;;;;;;5.50;2.60;;;;;;;;;;5052347;28;20107;-77
2022/09/11 07:51:05;;;;;;;4.15;1.70;;;;;;;;;;5052116;28;20037;-78
2022/09/11 07:53:38;;;;;;;4.43;1.80;;;;;;;;;;5070421;28;20024;-77
2022/09/11 07:56:07;;;;;;;2.10;1.75;;;;;;;;;;5052355;28;20345;-76
2022/09/11 07:58:34;;;;;;;3.97;1.83;;;;;;;;;;5052381;28;20369;-78
2022/09/11 08:01:01;;;;;;;5.57;2.08;;;;;;;;;;5052042;28;20032;-77
2022/09/11 08:03:27;;;;;;;3.85;1.98;;;;;;;;;;5052132;28;20034;-77
2022/09/11 08:05:57;;;;;;;4.47;2.00;;;;;;;;;;5070081;28;20036;-77
2022/09/11 08:08:22;;;;;;;2.08;1.98;;;;;;;;;;5052041;28;20058;-78
2022/09/11 08:10:47;;;;;;;4.10;3.08;;;;;;;;;;5070065;28;20024;-77
2022/09/11 08:13:13;;;;;;;2.63;2.20;;;;;;;;;;5070126;28;20036;-77
2022/09/11 08:15:46;;;;;;;3.33;2.50;;;;;;;;;;5052314;28;20056;-77
2022/09/11 08:18:11;;;;;;;2.75;2.40;;;;;;;;;;5052223;28;20032;-78
2022/09/11 08:20:37;;;;;;;9.88;4.75;;;;;;;;;;5052268;28;20046;-76
2022/09/11 08:23:02;;;;;;;4.15;2.30;;;;;;;;;;5069812;28;20033;-77
2022/09/11 08:25:28;;;;;;;2.40;2.20;;;;;;;;;;5071604;28;20098;-77
2022/09/11 08:27:53;;;;;;;3.33;2.30;;;;;;;;;;5094156;28;20031;-78
2022/09/11 08:30:19;;;;;;;6.22;2.50;;;;;;;;;;5094233;28;20059;-77
2022/09/11 08:32:45;;;;;;;3.92;2.25;;;;;;;;;;5076041;28;20020;-78
2022/09/11 08:35:11;;;;;;;2.85;2.17;;;;;;;;;;5094390;28;20026;-77
2022/09/11 08:37:36;;;;;;;1.80;1.70;;;;;;;;;;5076294;28;20038;-77
2022/09/11 08:40:02;;;;;;;3.33;2.53;;;;;;;;;;5075721;28;20086;-78
2022/09/11 08:42:27;;;;;;;2.97;2.50;;;;;;;;;;5094526;28;20031;-77
2022/09/11 08:44:55;;;;;;;6.65;2.70;;;;;;;;;;5076144;28;20032;-77
2022/09/11 08:47:25;;;;;;;3.67;2.40;;;;;;;;;;5075755;28;20028;-77
2022/09/11 08:50:11;;;;;;;3.53;3.03;;;;;;;;;;5075762;28;20117;-76
2022/09/11 08:52:36;;;;;;;5.72;2.67;;;;;;;;;;5075691;28;20028;-78
2022/09/11 08:55:03;;;;;;;3.05;2.67;;;;;;;;;;5075583;28;20024;-77
2022/09/11 08:57:41;;;;;;;6.00;3.22;;;;;;;;;;5093648;28;20071;-77
2022/09/11 09:00:13;;;;;;;5.35;2.60;;;;;;;;;;5075247;28;20028;-77
2022/09/11 09:02:57;;;;;;;11.18;3.92;;;;;;;;;;5075722;28;20016;-77
2022/09/11 09:05:58;;;;;;;3.78;2.72;;;;;;;;;;5075385;28;20071;-77
2022/09/11 09:08:33;;;;;;;4.30;2.67;;;;;;;;;;5090349;28;20043;-77
2022/09/11 09:11:42;;;;;;;5.05;3.10;;;;;;;;;;5074924;28;20047;-78
2022/09/11 09:14:45;;;;;;;6.18;3.22;;;;;;;;;;5075171;28;20056;-76
2022/09/11 09:17:34;;;;;;;4.93;3.03;;;;;;;;;;5075114;28;20060;-77
2022/09/11 09:20:08;;;;;;;6.30;3.00;;;;;;;;;;5092863;28;20468;-77
2022/09/11 09:22:58;;;;;;;3.45;3.10;;;;;;;;;;5074913;28;20028;-77
2022/09/11 09:25:25;;;;;;;7.82;3.78;;;;;;;;;;5058913;28;20023;-77
2022/09/11 09:28:06;;;;;;;4.15;2.95;;;;;;;;;;5055045;28;20028;-78
2022/09/11 09:30:44;;;;;;;3.85;2.78;;;;;;;;;;5054812;28;20485;-77
2022/09/11 09:33:31;;;;;;;4.50;3.38;;;;;;;;;;5055235;28;20090;-77
2022/09/11 09:36:09;;;;;;;4.80;3.15;;;;;;;;;;5055848;28;20047;-77
2022/09/11 09:38:34;;;;;;;5.95;3.45;;;;;;;;;;5072718;28;20020;-77
2022/09/11 09:41:18;;;;;;;5.05;3.53;;;;;;;;;;5072552;28;20040;-75
2022/09/11 09:44:07;;;;;;;3.90;3.03;;;;;;;;;;5055139;28;20020;-78
2022/09/11 09:46:42;;;;;;;6.80;4.82;;;;;;;;;;5057743;28;20035;-77
2022/09/11 09:49:26;;;;;;;6.00;4.18;;;;;;;;;;5054798;28;20028;-80
2022/09/11 09:51:55;;;;;;;7.55;3.22;;;;;;;;;;5054609;28;20473;-77
2022/09/11 09:54:25;;;;;;;5.53;3.38;;;;;;;;;;5072629;28;20036;-77
2022/09/11 09:57:10;;;;;;;4.07;2.78;;;;;;;;;;5054173;28;20097;-77
2022/09/11 09:59:49;;;;;;;5.90;3.40;;;;;;;;;;5055037;28;20139;-78
2022/09/11 10:02:48;;;;;;;4.47;3.60;;;;;;;;;;5054364;28;20031;-77
2022/09/11 10:05:28;;;;;;;3.80;3.45;;;;;;;;;;5072350;28;20021;-76
2022/09/11 10:07:59;;;;;;;4.15;3.67;;;;;;;;;;5054326;28;20476;-77
2022/09/11 10:10:26;;;;;;;;;;;;;;;;;;5073124;28;20107;-77
2022/09/11 10:12:55;;;;;;;6.53;4.13;;;;;;;;;;5054156;28;20017;-77
2022/09/11 10:15:24;;;;;;;3.95;3.25;;;;;;;;;;5053937;28;20384;-77
2022/09/11 10:17:50;;;;;;;9.15;4.07;;;;;;;;;;5054151;28;20103;-78
2022/09/11 10:20:22;;;;;;;7.88;3.47;;;;;;;;;;5071842;28;20025;-77
2022/09/11 10:22:49;;;;;;;4.60;3.40;;;;;;;;;;5072338;28;20024;-78
2022/09/11 10:25:39;;;;;;;7.60;3.38;;;;;;;;;;5068543;28;20031;-78
2022/09/11 10:28:13;;;;;;;7.90;3.70;;;;;;;;;;5073417;28;20031;-77
2022/09/11 10:30:58;;;;;;;6.05;3.72;;;;;;;;;;5070777;28;20049;-78
2022/09/11 10:33:31;;;;;;;5.45;3.78;;;;;;;;;;5070751;28;20024;-78
2022/09/11 10:36:00;;;;;;;7.68;4.45;;;;;;;;;;5071862;28;20043;-77
2022/09/11 10:38:30;;;;;;;5.35;4.07;;;;;;;;;;5071669;28;20131;-78
2022/09/11 10:41:09;;;;;;;6.13;4.70;;;;;;;;;;5071850;28;20491;-78
2022/09/11 10:43:42;;;;;;;5.53;3.75;;;;;;;;;;5071961;28;20047;-77
2022/09/11 10:46:16;;;;;;;5.97;4.40;;;;;;;;;;5070314;28;20476;-77
2022/09/11 10:48:42;;;;;;;7.15;4.80;;;;;;;;;;5069882;28;20037;-78
2022/09/11 10:51:11;;;;;;;7.13;5.13;;;;;;;;;;5071208;28;20072;-78
2022/09/11 10:53:54;;;;;;;6.25;4.93;;;;;;;;;;5070277;28;20020;-77
2022/09/11 10:56:20;;;;;;;5.65;4.82;;;;;;;;;;5070234;28;20056;-77
2022/09/11 10:58:48;;;;;;;7.53;4.90;;;;;;;;;;5070101;28;20036;-77
2022/09/11 11:01:14;;;;;;;8.52;5.28;;;;;;;;;;5070051;28;20115;-78
2022/09/11 11:03:39;;;;;;;6.90;4.60;;;;;;;;;;5070111;28;20527;-77
2022/09/11 11:06:30;;;;;;;8.88;4.32;;;;;;;;;;5069780;28;20025;-77
2022/09/11 11:08:59;;;;;;;11.30;5.17;;;;;;;;;;5070095;28;20025;-78
2022/09/11 11:11:50;;;;;;;7.60;4.80;;;;;;;;;;5072044;28;20262;-77
2022/09/11 11:14:40;;;;;;;8.95;5.22;;;;;;;;;;5071210;28;20119;-76
2022/09/11 11:17:27;;;;;;;4.80;3.72;;;;;;;;;;5079308;28;20024;-77
2022/09/11 11:20:14;;;;;;;9.85;4.38;;;;;;;;;;5087692;28;20070;-78
2022/09/11 11:22:52;;;;;;;7.35;4.07;;;;;;;;;;5083466;28;20036;-79
2022/09/11 11:25:47;;;;;;;10.30;4.57;;;;;;;;;;5055611;28;20024;-78
2022/09/11 11:28:38;;;;;;;7.10;3.90;;;;;;;;;;5049717;28;20381;-79
2022/09/11 11:31:36;;;;;;;6.95;3.92;;;;;;;;;;5063957;28;20032;-78
2022/09/11 11:34:16;;;;;;;4.90;3.70;;;;;;;;;;5064410;28;20033;-79
2022/09/11 11:36:50;;;;;;;3.55;2.63;;;;;;;;;;5071326;28;20035;-79
2022/09/11 11:39:45;;;;;;;5.47;3.00;;;;;;;;;;5053016;28;20072;-78
2022/09/11 11:42:25;;;;;;;10.05;3.28;;;;;;;;;;5039434;28;20496;-78
2022/09/11 11:44:57;;;;;;;4.17;2.93;;;;;;;;;;5052691;28;20020;-79
2022/09/11 11:47:25;;;;;;;;;;;;;;;;;;5053205;28;20028;-79
2022/09/11 11:50:20;;;;;;;6.22;3.05;;;;;;;;;;5052734;28;19998;-79
2022/09/11 11:52:56;;;;;;;4.40;2.72;;;;;;;;;;5052429;28;20024;-79
2022/09/11 11:55:31;;;;;;;3.80;3.00;;;;;;;;;;5053767;28;20024;-79
2022/09/11 11:58:06;;;;;;;12.65;3.53;;;;;;;;;;5070916;28;20056;-80
2022/09/11 12:00:40;;;;;;;3.67;2.55;;;;;;;;;;5052895;28;20028;-77
2022/09/11 12:03:17;;;;;;;6.32;3.30;;;;;;;;;;5070386;28;20703;-78
2022/09/11 12:05:43;;;;;;;6.68;3.15;;;;;;;;;;5052634;28;20024;-79
2022/09/11 12:08:13;;;;;;;5.70;4.10;;;;;;;;;;5052935;28;20028;-78
2022/09/11 12:10:43;;;;;;;3.22;2.60;;;;;;;;;;5053539;28;20123;-80
2022/09/11 12:13:16;;;;;;;4.78;2.80;;;;;;;;;;5070343;28;20036;-79
2022/09/11 12:16:13;;;;;;;6.38;3.00;;;;;;;;;;5071037;28;20505;-79
2022/09/11 12:18:41;;;;;;;4.47;2.83;;;;;;;;;;5053084;28;20115;-80
2022/09/11 12:21:21;;;;;;;4.55;3.10;;;;;;;;;;5052523;28;20028;-79
2022/09/11 12:23:56;;;;;;;9.77;3.38;;;;;;;;;;5071061;28;20057;-79
2022/09/11 12:26:26;;;;;;;5.97;3.45;;;;;;;;;;5053631;28;20123;-79
2022/09/11 12:29:18;;;;;;;8.45;4.22;;;;;;;;;;5053711;28;20032;-79
2022/09/11 12:31:50;;;;;;;4.93;3.28;;;;;;;;;;5052066;28;20144;-79
2022/09/11 12:34:24;;;;;;;8.00;4.10;;;;;;;;;;5052034;28;20438;-77
2022/09/11 12:36:54;;;;;;;7.28;4.22;;;;;;;;;;5052441;28;20031;-78
2022/09/11 12:39:33;;;;;;;7.20;4.30;;;;;;;;;;5052063;28;20037;-79
2022/09/11 12:42:38;;;;;;;6.53;4.20;;;;;;;;;;5052540;28;20028;-82
2022/09/11 12:45:04;;;;;;;6.57;4.03;;;;;;;;;;5018435;28;20068;-79
2022/09/11 12:47:38;;;;;;;7.43;4.30;;;;;;;;;;5069854;28;20016;-78
2022/09/11 12:50:03;;;;;;;7.55;4.15;;;;;;;;;;5051843;28;20036;-79
2022/09/11 12:52:38;;;;;;;9.10;4.90;;;;;;;;;;5069872;28;20024;-77
2022/09/11 12:55:22;;;;;;;8.93;4.47;;;;;;;;;;5051765;28;20035;-79
2022/09/11 12:57:49;;;;;;;9.32;5.50;;;;;;;;;;5051733;28;20024;-79
2022/09/11 13:00:29;;;;;;;5.32;4.35;;;;;;;;;;5052082;28;20071;-79
2022/09/11 13:02:57;;;;;;;8.93;5.00;;;;;;;;;;5052269;28;20023;-80
2022/09/11 13:05:33;;;;;;;9.02;4.70;;;;;;;;;;5051690;28;20112;-78
2022/09/11 13:08:14;;;;;;;9.30;5.85;;;;;;;;;;5070149;28;20036;-80
2022/09/11 13:10:40;;;;;;;11.02;6.35;;;;;;;;;;5053562;28;20024;-79
2022/09/11 13:13:36;;;;;;;13.25;5.85;;;;;;;;;;5055656;28;20383;-78
2022/09/11 13:16:22;;;;;;;11.90;7.70;;;;;;;;;;5055600;28;20036;-79
2022/09/11 13:18:47;;;;;;;7.75;5.85;;;;;;;;;;5073623;28;20453;-79
2022/09/11 13:21:17;;;;;;;8.70;5.72;;;;;;;;;;5073416;28;20082;-79
2022/09/11 13:23:42;;;;;;;6.70;4.55;;;;;;;;;;5057243;28;20372;-79
2022/09/11 13:26:14;;;;;;;9.00;4.95;;;;;;;;;;5075675;28;20024;-79
2022/09/11 13:28:49;;;;;;;8.43;4.90;;;;;;;;;;5075721;28;20526;-79
2022/09/11 13:31:26;;;;;;;4.55;4.03;;;;;;;;;;5093397;28;20044;-78
2022/09/11 13:33:52;;;;;;;5.70;4.03;;;;;;;;;;5075492;28;20040;-79
2022/09/11 13:36:22;;;;;;;5.70;4.20;;;;;;;;;;5093790;28;20028;-78
2022/09/11 13:38:53;;;;;;;5.32;4.05;;;;;;;;;;5058737;28;20527;-79
2022/09/11 13:41:24;;;;;;;4.43;4.03;;;;;;;;;;5075794;28;20114;-79
2022/09/11 13:43:54;;;;;;;6.32;4.60;;;;;;;;;;5075435;28;20111;-80
2022/09/11 13:46:23;;;;;;;7.18;4.68;;;;;;;;;;5075362;28;20055;-78
2022/09/11 13:48:53;;;;;;;7.13;5.45;;;;;;;;;;5075297;28;20114;-79
2022/09/11 13:51:23;;;;;;;11.25;6.53;;;;;;;;;;5093502;28;20476;-79
2022/09/11 13:54:04;;;;;;;9.90;6.13;;;;;;;;;;5074959;28;20380;-78
2022/09/11 13:56:40;;;;;;;11.05;6.28;;;;;;;;;;5075025;28;20126;-80
2022/09/11 13:59:34;;;;;;;7.55;6.25;;;;;;;;;;5093261;28;20484;-78
2022/09/11 14:02:00;;;;;;;19.92;10.73;;;;;;;;;;5074294;28;20074;-78
2022/09/11 14:04:28;;;;;;;14.93;13.43;;;;;;;;;;5057901;28;20403;-77
2022/09/11 14:06:55;;;;;;;6.28;4.60;;;;;;;;;;5074583;28;20024;-79
2022/09/11 14:09:21;;;;;;;6.22;4.47;;;;;;;;;;5092502;28;20089;-78
2022/09/11 14:11:48;;;;;;;12.27;4.88;;;;;;;;;;5074782;28;20058;-79
2022/09/11 14:14:24;;;;;;;5.90;4.28;;;;;;;;;;5074478;28;20035;-77
2022/09/11 14:16:54;;;;;;;5.43;4.03;;;;;;;;;;5076373;28;20370;-78
2022/09/11 14:19:23;;;;;;;5.55;3.70;;;;;;;;;;5093009;28;20106;-78
2022/09/11 14:21:50;;;;;;;8.20;4.07;;;;;;;;;;5073130;28;20036;-78
2022/09/11 14:24:31;;;;;;;7.05;4.30;;;;;;;;;;5068188;28;20457;-79
2022/09/11 14:27:03;;;;;;;5.63;3.75;;;;;;;;;;5076227;28;20644;-79
2022/09/11 14:30:31;;;;;;;3.70;3.28;;;;;;;;;;5082257;28;20419;-77
2022/09/11 14:33:21;;;;;;;3.88;3.35;;;;;;;;;;5071103;28;20051;-78
2022/09/11 14:36:26;;;;;;;4.00;2.75;;;;;;;;;;5083013;28;20033;-79
2022/09/11 14:39:27;;;;;;;4.60;2.55;;;;;;;;;;5083195;28;20029;-78
2022/09/11 14:41:58;;;;;;;4.85;3.05;;;;;;;;;;5083490;28;20084;-78
2022/09/11 14:44:31;;;;;;;4.80;3.17;;;;;;;;;;5084601;28;20054;-77
2022/09/11 14:49:45;;;;;;;5.05;3.28;;;;;;;;;;5084246;28;20515;-77
2022/09/11 14:52:13;;;;;;;5.88;2.92;;;;;;;;;;5059561;28;20027;-78
2022/09/11 14:54:39;;;;;;;12.02;3.80;;;;;;;;;;5053548;28;20028;-80
2022/09/11 14:57:15;;;;;;;4.25;3.20;;;;;;;;;;5053286;28;20032;-79
2022/09/11 14:59:41;;;;;;;5.28;3.33;;;;;;;;;;5054002;28;20028;-79
2022/09/11 15:02:11;;;;;;;6.57;3.42;;;;;;;;;;5053839;28;20024;-79
2022/09/11 15:04:38;;;;;;;3.75;2.85;;;;;;;;;;5053680;28;20031;-80
2022/09/11 15:07:04;;;;;;;7.65;3.47;;;;;;;;;;5053561;28;20028;-79
2022/09/11 15:09:29;;;;;;;3.17;2.88;;;;;;;;;;5053702;28;20035;-79
2022/09/11 15:11:55;;;;;;;5.07;2.72;;;;;;;;;;5053668;28;20021;-78
2022/09/11 15:14:20;;;;;;;4.40;3.15;;;;;;;;;;5053637;28;20112;-79
2022/09/11 15:16:47;;;;;;;7.70;3.20;;;;;;;;;;5053943;28;20031;-80